Time;durP1;ratioP1;P1;durP2;ratioP2;P2;SDS_P1;SDS_P2;PMS_P1;PMS_P2;Temp;Humidity;BMP_temperature;BMP_pressure;BME280_temperature;BME280_humidity;BME280_pressure;Samples;Min_cycle;Max_cycle;Signal;HPM_P1;HPM_P2
2022/01/03 00:01:05;;;;;;;1.77;1.55;;;;;;;12.60;64.04;101151.84;5056633;28;20048;-82
2022/01/03 00:03:31;;;;;;;0.05;0.05;;;;;;;12.50;64.03;101151.16;5057112;28;20029;-82
2022/01/03 00:05:57;;;;;;;1.38;1.35;;;;;;;12.61;63.89;101157.09;5056211;28;20134;-81
2022/01/03 00:08:25;;;;;;;0.05;0.05;;;;;;;12.70;63.79;101171.09;5056873;28;20468;-82
2022/01/03 00:10:52;;;;;;;0.05;0.05;;;;;;;12.47;64.24;101199.06;5057049;28;20036;-83
2022/01/03 00:13:20;;;;;;;0.13;0.13;;;;;;;12.46;63.94;101178.69;5056107;28;20029;-82
2022/01/03 00:15:47;;;;;;;8.40;1.55;;;;;;;12.68;63.41;101157.81;5056559;28;20107;-83
2022/01/03 00:18:13;;;;;;;0.10;0.10;;;;;;;12.61;63.45;101173.06;5056384;28;20495;-82
2022/01/03 00:20:41;;;;;;;3.72;2.28;;;;;;;12.63;63.58;101173.00;5055857;28;20053;-83
2022/01/03 00:23:08;;;;;;;0.30;0.30;;;;;;;12.44;63.86;101185.84;5055987;28;20080;-82
2022/01/03 00:25:41;;;;;;;0.65;0.65;;;;;;;12.68;63.07;101160.47;5056198;28;20021;-82
2022/01/03 00:28:15;;;;;;;0.20;0.20;;;;;;;12.59;63.16;101190.81;5056096;28;20036;-82
2022/01/03 00:30:43;;;;;;;4.70;3.13;;;;;;;12.70;63.80;101166.66;5056375;28;20029;-82
2022/01/03 00:33:11;;;;;;;0.08;0.08;;;;;;;12.58;63.29;101182.88;5055779;28;20032;-82
2022/01/03 00:35:39;;;;;;;0.10;0.10;;;;;;;12.69;63.67;101174.66;5056161;28;20029;-82
2022/01/03 00:38:11;;;;;;;0.10;0.10;;;;;;;12.64;63.37;101171.25;5055916;28;20036;-82
2022/01/03 00:40:39;;;;;;;0.10;0.10;;;;;;;12.58;63.26;101167.78;5054740;28;20029;-82
2022/01/03 00:43:06;;;;;;;0.10;0.10;;;;;;;12.62;63.48;101172.16;5055705;28;20060;-82
2022/01/03 00:45:32;;;;;;;0.10;0.10;;;;;;;12.71;62.71;101180.81;5054984;28;20040;-82
2022/01/03 00:47:58;;;;;;;0.35;0.35;;;;;;;12.63;63.29;101170.34;5055218;28;20357;-82
2022/01/03 00:50:25;;;;;;;2.30;1.85;;;;;;;12.63;62.72;101191.63;5055909;28;20040;-82
2022/01/03 00:52:52;;;;;;;0.65;0.65;;;;;;;12.51;63.08;101176.84;5056009;28;20040;-82
2022/01/03 00:55:19;;;;;;;0.68;0.68;;;;;;;12.59;62.72;101184.63;5056059;28;20032;-82
2022/01/03 00:58:07;;;;;;;0.05;0.05;;;;;;;12.66;62.61;101164.09;5056118;28;20036;-82
2022/01/03 01:00:38;;;;;;;0.15;0.15;;;;;;;12.55;62.38;101170.53;5055677;28;20040;-82
2022/01/03 01:03:15;;;;;;;0.20;0.20;;;;;;;12.56;62.04;101180.25;5053349;28;20047;-82
2022/01/03 01:05:44;;;;;;;0.10;0.10;;;;;;;12.59;62.29;101179.31;5054928;28;20094;-82
2022/01/03 01:08:12;;;;;;;0.10;0.10;;;;;;;12.52;61.60;101191.00;5056165;28;20098;-82
2022/01/03 01:10:41;;;;;;;0.15;0.15;;;;;;;12.51;62.55;101187.47;5055492;28;20112;-82
2022/01/03 01:13:11;;;;;;;0.93;0.93;;;;;;;12.50;62.71;101175.09;5056289;28;20075;-82
2022/01/03 01:15:37;;;;;;;0.22;0.22;;;;;;;12.42;62.98;101185.00;5055474;28;20039;-82
2022/01/03 01:18:04;;;;;;;0.10;0.10;;;;;;;12.46;63.07;101173.38;5055247;28;20097;-82
2022/01/03 01:20:33;;;;;;;0.35;0.30;;;;;;;12.56;62.55;101174.06;5055645;28;20047;-82
2022/01/03 01:23:01;;;;;;;0.10;0.10;;;;;;;12.54;62.90;101195.38;5055436;28;20033;-82
2022/01/03 01:27:47;;;;;;;0.30;0.30;;;;;;;12.38;62.98;101193.97;5055371;28;20029;-82
2022/01/03 01:28:16;;;;;;;0.10;0.10;;;;;;;12.46;62.18;101178.69;5055478;28;20033;-81
2022/01/03 01:30:43;;;;;;;0.43;0.43;;;;;;;12.62;62.25;101190.75;5055698;28;20053;-82
2022/01/03 01:33:13;;;;;;;0.40;0.40;;;;;;;12.66;62.26;101177.38;5054650;28;20384;-82
2022/01/03 01:38:31;;;;;;;0.73;0.73;;;;;;;12.53;62.72;101180.31;5112474;27;20376;-82
2022/01/03 01:41:00;;;;;;;4.18;2.60;;;;;;;12.39;63.15;101182.44;5112823;28;20039;-81
2022/01/03 01:46:18;;;;;;;0.20;0.20;;;;;;;12.43;62.94;101181.44;5092147;28;20455;-81
2022/01/03 01:48:48;;;;;;;1.17;1.17;;;;;;;12.50;62.65;101185.72;5072222;28;20037;-81
2022/01/03 01:51:16;;;;;;;0.30;0.30;;;;;;;12.40;63.08;101181.50;5057320;28;20422;-81
2022/01/03 01:53:47;;;;;;;0.10;0.10;;;;;;;12.41;63.29;101180.59;5052128;28;20025;-82
2022/01/03 01:59:38;;;;;;;0.10;0.10;;;;;;;12.61;62.54;101190.78;5072474;28;20395;-81
2022/01/03 02:02:08;;;;;;;0.10;0.10;;;;;;;12.46;63.20;101181.34;5052090;28;20045;-81
2022/01/03 02:12:41;;;;;;;0.10;0.10;;;;;;;12.44;63.39;101186.72;5092348;27;20406;-82
2022/01/03 02:15:11;;;;;;;0.10;0.10;;;;;;;12.46;63.65;101205.28;5071607;28;20041;-81
2022/01/03 02:17:39;;;;;;;0.17;0.17;;;;;;;12.52;63.81;101197.16;5071756;28;20474;-81
2022/01/03 02:20:11;;;;;;;0.20;0.20;;;;;;;12.57;63.31;101207.72;5067191;28;20396;-82
2022/01/03 02:22:39;;;;;;;0.10;0.10;;;;;;;12.33;64.29;101201.16;5051884;28;20385;-81
2022/01/03 02:25:08;;;;;;;0.10;0.10;;;;;;;12.50;63.96;101196.34;5051556;28;20060;-81
2022/01/03 02:27:35;;;;;;;0.05;0.05;;;;;;;12.44;63.65;101201.81;5050274;28;20468;-81
2022/01/03 02:30:06;;;;;;;0.10;0.10;;;;;;;12.35;63.75;101197.56;5051425;28;20095;-81
2022/01/03 02:32:32;;;;;;;0.10;0.10;;;;;;;12.58;63.24;101199.69;5051714;28;20048;-81
2022/01/03 02:34:58;;;;;;;0.10;0.10;;;;;;;12.51;63.67;101198.09;5050571;28;20183;-81
2022/01/03 02:37:25;;;;;;;1.27;1.27;;;;;;;12.59;62.75;101188.16;5051880;28;20029;-81
2022/01/03 02:39:52;;;;;;;0.10;0.10;;;;;;;12.46;63.24;101192.00;5050907;28;20085;-82
2022/01/03 02:42:23;;;;;;;0.57;0.57;;;;;;;12.29;63.19;101206.53;5051875;28;20040;-82
2022/01/03 02:45:00;;;;;;;0.15;0.15;;;;;;;12.43;63.26;101190.28;5051278;28;20503;-82
2022/01/03 02:47:27;;;;;;;0.10;0.10;;;;;;;12.40;63.25;101185.03;5051604;28;20029;-82
2022/01/03 02:49:53;;;;;;;0.60;0.60;;;;;;;12.42;63.61;101185.91;5051454;28;20037;-81
2022/01/03 02:52:19;;;;;;;0.10;0.10;;;;;;;12.38;63.68;101184.19;5051288;28;20118;-82
2022/01/03 02:54:46;;;;;;;2.75;2.17;;;;;;;12.47;62.70;101183.13;5050919;28;20033;-81
2022/01/03 02:57:13;;;;;;;0.10;0.10;;;;;;;12.49;63.28;101191.94;5051042;28;20476;-81
2022/01/03 02:59:39;;;;;;;0.10;0.10;;;;;;;12.38;63.02;101183.34;5051450;28;20132;-81
2022/01/03 03:02:06;;;;;;;0.40;0.40;;;;;;;12.24;63.47;101189.81;5050454;28;20396;-81
2022/01/03 03:04:47;;;;;;;0.10;0.10;;;;;;;12.34;62.98;101184.31;5051406;28;20087;-80
2022/01/03 03:07:22;;;;;;;1.60;1.50;;;;;;;12.42;62.90;101203.59;5050952;28;20041;-81
2022/01/03 03:09:49;;;;;;;0.93;0.93;;;;;;;12.25;63.25;101191.56;5050901;28;20026;-82
2022/01/03 03:12:16;;;;;;;0.10;0.10;;;;;;;12.37;63.23;101184.25;5050160;28;20139;-81
2022/01/03 03:14:42;;;;;;;5.00;3.10;;;;;;;12.28;63.84;101188.84;5050660;28;20443;-81
2022/01/03 03:17:08;;;;;;;0.00;0.00;;;;;;;12.36;63.81;101188.69;5051323;28;20074;-81
2022/01/03 03:22:31;;;;;;;0.10;0.10;;;;;;;12.46;63.39;101184.91;5092262;27;20415;-81
2022/01/03 03:25:15;;;;;;;0.32;0.32;;;;;;;12.21;64.83;101175.72;5071965;28;20021;-81
2022/01/03 03:27:45;;;;;;;0.03;0.03;;;;;;;12.33;64.40;101182.56;5071661;28;20029;-83
2022/01/03 03:30:15;;;;;;;2.28;2.17;;;;;;;12.26;65.27;101188.00;5066764;28;20075;-81
2022/01/03 03:32:44;;;;;;;4.05;2.25;;;;;;;12.43;64.82;101176.13;5051009;28;20028;-82
2022/01/03 03:35:11;;;;;;;3.40;3.15;;;;;;;12.44;64.47;101186.72;5052068;28;20029;-81
2022/01/03 03:37:37;;;;;;;0.10;0.10;;;;;;;12.43;64.79;101184.09;5051996;28;20083;-82
2022/01/03 03:40:04;;;;;;;0.15;0.15;;;;;;;12.30;65.41;101181.72;5052369;28;20435;-81
2022/01/03 03:42:30;;;;;;;0.30;0.30;;;;;;;12.30;66.08;101178.19;5049631;28;20021;-82
2022/01/03 03:44:56;;;;;;;1.17;1.17;;;;;;;12.44;65.20;101188.50;5052096;28;20064;-82
2022/01/03 03:47:22;;;;;;;1.75;1.65;;;;;;;12.38;65.04;101168.25;5050606;28;20034;-82
2022/01/03 03:49:49;;;;;;;1.08;1.08;;;;;;;12.49;64.96;101173.34;5051036;28;20056;-82
2022/01/03 03:52:15;;;;;;;0.10;0.10;;;;;;;12.41;65.50;101167.31;5051012;28;20029;-81
2022/01/03 03:54:41;;;;;;;28.75;1.65;;;;;;;12.41;65.53;101169.97;5050248;28;20033;-82
2022/01/03 03:57:08;;;;;;;0.57;0.57;;;;;;;12.41;65.41;101160.22;5051934;28;20036;-82
2022/01/03 03:59:35;;;;;;;0.95;0.95;;;;;;;12.51;64.66;101163.56;5051425;28;20036;-81
2022/01/03 04:02:02;;;;;;;0.25;0.25;;;;;;;12.35;64.93;101154.16;5051575;28;20613;-81
2022/01/03 04:04:28;;;;;;;0.45;0.45;;;;;;;12.42;65.18;101155.78;5051132;28;20033;-82
2022/01/03 04:06:55;;;;;;;0.10;0.10;;;;;;;12.35;65.61;101159.47;5050196;28;20032;-81
2022/01/03 04:09:21;;;;;;;0.10;0.10;;;;;;;12.51;64.66;101150.28;5051525;28;20030;-81
2022/01/03 04:11:49;;;;;;;0.15;0.15;;;;;;;12.54;64.36;101150.19;5051084;28;20396;-81
2022/01/03 04:14:15;;;;;;;1.23;1.23;;;;;;;12.67;64.80;101150.75;5051021;28;20116;-81
2022/01/03 04:16:42;;;;;;;0.10;0.10;;;;;;;12.47;65.29;101159.19;5051272;28;20469;-81
2022/01/03 04:19:08;;;;;;;0.10;0.10;;;;;;;12.37;65.58;101162.97;5050462;28;20041;-81
2022/01/03 04:21:37;;;;;;;0.10;0.10;;;;;;;12.48;64.98;101155.63;5050877;28;20037;-81
2022/01/03 04:24:04;;;;;;;0.10;0.10;;;;;;;12.54;65.13;101151.97;5050539;28;20029;-81
2022/01/03 04:26:31;;;;;;;0.10;0.10;;;;;;;12.44;66.12;101159.28;5051552;28;20511;-82
2022/01/03 04:28:57;;;;;;;1.58;1.48;;;;;;;12.51;65.76;101150.28;5051174;28;20120;-81
2022/01/03 04:31:25;;;;;;;1.75;1.65;;;;;;;12.40;65.93;101154.94;5049150;28;20025;-82
2022/01/03 04:33:52;;;;;;;1.13;1.13;;;;;;;12.50;66.18;101156.47;5037177;28;20388;-81
2022/01/03 04:36:20;;;;;;;0.10;0.10;;;;;;;12.63;66.07;101143.78;5037378;28;20508;-80
2022/01/03 04:38:46;;;;;;;0.68;0.68;;;;;;;12.49;66.04;101152.06;5037693;28;20365;-82
2022/01/03 04:41:12;;;;;;;22.13;2.33;;;;;;;12.62;65.70;101147.34;5036153;28;20033;-82
2022/01/03 04:43:41;;;;;;;0.20;0.20;;;;;;;12.71;65.50;101147.13;5036339;28;20509;-81
2022/01/03 04:46:08;;;;;;;0.10;0.10;;;;;;;12.66;65.65;101146.38;5037080;28;20542;-81
2022/01/03 04:48:36;;;;;;;0.10;0.10;;;;;;;12.56;65.77;101126.22;5036887;28;20056;-81
2022/01/03 04:51:03;;;;;;;0.10;0.10;;;;;;;12.64;65.24;101134.03;5035569;28;20045;-81
2022/01/03 04:53:29;;;;;;;0.20;0.20;;;;;;;12.54;65.72;101138.69;5036920;28;20384;-82
2022/01/03 04:55:56;;;;;;;0.32;0.32;;;;;;;12.59;65.65;101127.03;5034918;28;20436;-81
2022/01/03 04:58:22;;;;;;;3.53;2.30;;;;;;;12.55;65.22;101120.03;5036658;28;20037;-80
2022/01/03 05:00:49;;;;;;;0.10;0.10;;;;;;;12.52;65.82;101141.34;5036634;28;20491;-81
2022/01/03 05:03:16;;;;;;;0.15;0.15;;;;;;;12.61;65.19;101121.66;5036739;28;20029;-82
2022/01/03 05:05:43;;;;;;;0.20;0.20;;;;;;;12.51;65.82;101126.34;5037214;28;20030;-82
2022/01/03 05:08:09;;;;;;;0.35;0.35;;;;;;;12.40;66.51;101120.38;5035890;28;20079;-81
2022/01/03 05:10:35;;;;;;;0.40;0.40;;;;;;;12.50;66.12;101126.34;5037188;28;20057;-82
2022/01/03 05:13:02;;;;;;;0.52;0.52;;;;;;;12.60;65.54;101128.78;5036834;28;20389;-81
2022/01/03 05:15:28;;;;;;;0.05;0.05;;;;;;;12.51;66.04;101126.34;5036612;28;20033;-81
2022/01/03 05:17:54;;;;;;;0.10;0.10;;;;;;;12.61;65.52;101117.22;5036864;28;20029;-81
2022/01/03 05:20:21;;;;;;;12.40;4.50;;;;;;;12.52;65.88;101119.22;5035735;28;20037;-81
2022/01/03 05:22:47;;;;;;;0.08;0.08;;;;;;;12.58;65.93;101114.63;5036515;28;20109;-81
2022/01/03 05:25:13;;;;;;;0.85;0.85;;;;;;;12.50;65.57;101119.28;5036529;28;20061;-81
2022/01/03 05:27:40;;;;;;;18.83;3.22;;;;;;;12.58;65.76;101127.06;5036449;28;20029;-81
2022/01/03 05:30:07;;;;;;;6.82;1.45;;;;;;;12.54;65.29;101118.28;5035791;28;20022;-81
2022/01/03 05:32:33;;;;;;;0.10;0.10;;;;;;;12.52;65.45;101114.78;5035678;28;20033;-81
2022/01/03 05:34:59;;;;;;;0.10;0.10;;;;;;;12.65;65.20;101111.81;5036419;28;20385;-81
2022/01/03 05:37:25;;;;;;;0.10;0.10;;;;;;;12.62;65.51;101119.00;5036273;28;20031;-81
2022/01/03 05:39:52;;;;;;;0.32;0.32;;;;;;;12.62;65.24;101116.31;5035436;28;20036;-82
2022/01/03 05:42:18;;;;;;;0.10;0.10;;;;;;;12.65;65.70;101125.13;5035575;28;20041;-82
2022/01/03 05:44:44;;;;;;;3.55;3.40;;;;;;;12.74;65.59;101111.63;5034188;28;20383;-81
2022/01/03 05:47:10;;;;;;;17.33;5.45;;;;;;;12.62;65.38;101095.06;5036249;28;20040;-81
2022/01/03 05:49:37;;;;;;;2.03;1.92;;;;;;;12.69;65.09;101118.84;5035535;28;20488;-81
2022/01/03 05:52:03;;;;;;;0.32;0.32;;;;;;;12.73;65.75;101121.38;5034553;28;20045;-81
2022/01/03 05:54:29;;;;;;;2.00;1.90;;;;;;;12.65;65.35;101112.72;5035227;28;20025;-81
2022/01/03 05:56:56;;;;;;;0.30;0.30;;;;;;;12.73;65.06;101120.50;5035916;28;20021;-81
2022/01/03 05:59:22;;;;;;;0.10;0.10;;;;;;;12.68;65.08;101101.13;5035617;28;20033;-82
2022/01/03 06:01:48;;;;;;;0.10;0.10;;;;;;;12.70;65.00;101101.97;5036004;28;20037;-81
2022/01/03 06:04:22;;;;;;;0.20;0.20;;;;;;;12.80;65.01;101108.81;5035647;28;20121;-82
2022/01/03 06:06:59;;;;;;;0.10;0.10;;;;;;;12.75;64.88;101111.56;5035814;28;20025;-81
2022/01/03 06:09:26;;;;;;;0.30;0.30;;;;;;;12.82;65.07;101111.41;5034617;28;20171;-82
2022/01/03 06:11:54;;;;;;;1.42;1.23;;;;;;;12.87;64.33;101107.75;5035729;28;20033;-81
2022/01/03 06:14:21;;;;;;;0.10;0.10;;;;;;;12.85;64.76;101106.91;5035167;28;20044;-81
2022/01/03 06:16:49;;;;;;;1.38;1.30;;;;;;;12.72;64.92;101126.72;5034626;28;20026;-81
2022/01/03 06:19:16;;;;;;;0.10;0.10;;;;;;;12.68;65.25;101114.44;5034836;28;20146;-81
2022/01/03 06:21:44;;;;;;;0.57;0.57;;;;;;;12.52;65.75;101088.19;5034747;28;20037;-81
2022/01/03 06:24:13;;;;;;;23.38;1.05;;;;;;;12.66;64.90;101101.19;5034965;28;20048;-81
2022/01/03 06:26:41;;;;;;;1.38;0.52;;;;;;;12.65;64.98;101101.19;5035581;28;20033;-81
2022/01/03 06:29:08;;;;;;;0.38;0.38;;;;;;;12.67;65.21;101107.34;5035415;28;20061;-81
2022/01/03 06:31:34;;;;;;;0.10;0.10;;;;;;;12.82;64.77;101106.97;5034798;28;20063;-81
2022/01/03 06:34:01;;;;;;;0.20;0.20;;;;;;;12.78;64.85;101084.94;5034608;28;20480;-82
2022/01/03 06:36:27;;;;;;;0.32;0.32;;;;;;;12.79;64.26;101085.78;5034808;28;20021;-81
2022/01/03 06:38:54;;;;;;;0.10;0.10;;;;;;;12.86;64.83;101086.50;5035384;28;20025;-81
2022/01/03 06:41:20;;;;;;;0.20;0.20;;;;;;;12.70;64.85;101084.22;5034806;28;20044;-82
2022/01/03 06:43:46;;;;;;;2.65;2.45;;;;;;;12.78;64.65;101081.38;5034720;28;20034;-81
2022/01/03 06:46:12;;;;;;;0.13;0.13;;;;;;;12.82;64.48;101079.50;5035091;28;20231;-81
2022/01/03 06:48:38;;;;;;;0.22;0.22;;;;;;;12.73;65.15;101080.63;5034538;28;20025;-81
2022/01/03 06:51:05;;;;;;;0.73;0.70;;;;;;;12.83;64.46;101091.91;5034891;28;20029;-82
2022/01/03 06:53:31;;;;;;;0.03;0.03;;;;;;;12.69;64.92;101095.78;5034836;28;20021;-81
2022/01/03 06:55:57;;;;;;;0.10;0.10;;;;;;;12.61;64.55;101093.31;5034178;28;20029;-82
2022/01/03 06:58:24;;;;;;;0.25;0.25;;;;;;;12.76;64.77;101080.53;5026626;28;20030;-82
2022/01/03 07:00:50;;;;;;;0.10;0.10;;;;;;;12.73;64.25;101088.59;5014424;28;20030;-81
2022/01/03 07:03:16;;;;;;;0.70;0.70;;;;;;;12.75;64.82;101084.13;5014436;28;20041;-82
2022/01/03 07:05:42;;;;;;;0.20;0.20;;;;;;;12.75;64.60;101090.31;5013982;28;20037;-81
2022/01/03 07:08:08;;;;;;;0.10;0.10;;;;;;;12.81;64.33;101088.41;5013834;28;20567;-81
2022/01/03 07:10:35;;;;;;;0.10;0.10;;;;;;;12.75;64.42;101084.13;5013716;28;20363;-81
2022/01/03 07:13:01;;;;;;;2.20;0.45;;;;;;;12.75;63.83;101092.09;5014675;28;20037;-81
2022/01/03 07:21:00;;;;;;;0.30;0.30;;;;;;;12.73;63.93;101093.91;5014096;28;20389;-81
2022/01/03 07:23:26;;;;;;;2.85;1.85;;;;;;;12.76;64.38;101086.75;5014685;28;20030;-81
2022/01/03 07:25:53;;;;;;;2.58;2.40;;;;;;;12.57;64.55;101106.69;5014103;28;20026;-81
2022/01/03 07:28:19;;;;;;;0.38;0.38;;;;;;;12.65;64.38;101098.53;5014705;28;20381;-82
2022/01/03 07:30:45;;;;;;;0.10;0.10;;;;;;;12.67;64.56;101102.91;5014421;28;20370;-81
2022/01/03 07:33:11;;;;;;;0.38;0.38;;;;;;;12.73;64.44;101101.88;5014175;28;20034;-81
2022/01/03 07:35:37;;;;;;;0.10;0.10;;;;;;;12.71;64.49;101103.69;5014094;28;20045;-82
2022/01/03 07:38:04;;;;;;;0.20;0.20;;;;;;;12.64;64.38;101110.09;5014795;28;20018;-81
2022/01/03 07:40:31;;;;;;;0.10;0.10;;;;;;;12.71;64.95;101098.38;5013980;28;20038;-81
2022/01/03 07:42:58;;;;;;;0.10;0.10;;;;;;;12.69;64.75;101109.06;5015213;28;20030;-81
2022/01/03 07:45:25;;;;;;;0.10;0.10;;;;;;;12.71;64.79;101107.25;5014650;28;20026;-82
2022/01/03 07:47:51;;;;;;;1.38;0.85;;;;;;;12.77;64.48;101101.78;5015239;28;20040;-82
2022/01/03 07:50:17;;;;;;;0.20;0.20;;;;;;;12.79;64.40;101107.06;5013843;28;20033;-81
2022/01/03 07:52:44;;;;;;;0.10;0.10;;;;;;;12.69;64.24;101110.88;5014724;28;20037;-81
2022/01/03 07:55:11;;;;;;;1.50;1.40;;;;;;;12.69;64.84;101105.53;5015138;28;20084;-81
2022/01/03 07:57:38;;;;;;;0.08;0.08;;;;;;;12.66;64.83;101111.81;5014763;28;20029;-81
2022/01/03 08:00:07;;;;;;;0.10;0.10;;;;;;;12.69;64.68;101116.19;5014349;28;20029;-81
2022/01/03 08:02:33;;;;;;;2.20;1.55;;;;;;;12.74;64.22;101100.97;5013708;28;20030;-81
2022/01/03 08:04:59;;;;;;;0.77;0.77;;;;;;;12.71;63.90;101114.34;5013525;28;20033;-81
2022/01/03 08:07:26;;;;;;;5.47;3.70;;;;;;;12.76;63.97;101113.31;5015044;28;20042;-81
2022/01/03 08:09:52;;;;;;;7.60;1.45;;;;;;;12.78;63.58;101114.19;5017882;28;20036;-81
2022/01/03 08:12:18;;;;;;;7.63;2.10;;;;;;;12.73;64.46;101108.06;5017631;28;20477;-81
2022/01/03 08:14:45;;;;;;;0.20;0.20;;;;;;;12.68;64.59;101106.44;5017379;28;20068;-81
2022/01/03 08:17:11;;;;;;;0.30;0.30;;;;;;;12.77;64.23;101093.81;5017439;28;20033;-81
2022/01/03 08:19:37;;;;;;;0.30;0.30;;;;;;;12.56;64.86;101105.84;5017041;28;20030;-81
2022/01/03 08:22:03;;;;;;;0.10;0.10;;;;;;;12.58;64.80;101098.69;5017227;28;20034;-81
2022/01/03 08:24:30;;;;;;;0.40;0.40;;;;;;;12.58;64.90;101104.00;5017690;28;20485;-81
2022/01/03 08:26:56;;;;;;;0.10;0.10;;;;;;;12.51;65.06;101106.84;5017948;28;20026;-81
2022/01/03 08:29:22;;;;;;;0.00;0.00;;;;;;;12.63;64.79;101101.25;5017666;28;20428;-82
2022/01/03 08:31:48;;;;;;;0.10;0.10;;;;;;;12.56;64.03;101119.13;5016820;28;20026;-81
2022/01/03 08:34:14;;;;;;;0.10;0.10;;;;;;;12.51;64.52;101113.06;5017469;28;20026;-81
2022/01/03 08:36:40;;;;;;;0.28;0.28;;;;;;;12.51;64.40;101101.53;5017156;28;20481;-81
2022/01/03 08:39:09;;;;;;;0.03;0.03;;;;;;;12.52;64.45;101104.16;5017738;28;20026;-81
2022/01/03 08:41:35;;;;;;;0.10;0.10;;;;;;;12.50;64.63;101119.28;4999914;28;20045;-81
2022/01/03 08:44:01;;;;;;;0.10;0.10;;;;;;;12.54;64.48;101118.28;5017291;28;20140;-81
2022/01/03 08:46:28;;;;;;;0.10;0.10;;;;;;;12.49;64.65;101117.53;5016444;28;20045;-81
2022/01/03 08:48:54;;;;;;;0.10;0.10;;;;;;;12.38;65.26;101123.09;5017443;28;20026;-81
2022/01/03 08:51:21;;;;;;;0.95;0.95;;;;;;;12.58;64.88;101130.59;5017623;28;20026;-82
2022/01/03 08:53:47;;;;;;;1.00;0.85;;;;;;;12.45;64.85;101129.16;5017531;28;20029;-81
2022/01/03 08:56:14;;;;;;;0.10;0.10;;;;;;;12.39;65.31;101129.28;5016945;28;20022;-81
2022/01/03 08:58:40;;;;;;;0.30;0.30;;;;;;;12.59;64.81;101115.53;5016636;28;20038;-81
2022/01/03 09:01:06;;;;;;;4.78;0.68;;;;;;;12.48;65.38;101110.47;5017246;28;20112;-80
2022/01/03 09:03:32;;;;;;;7.97;3.33;;;;;;;12.56;65.24;101116.47;5017333;28;20038;-81
2022/01/03 09:05:59;;;;;;;1.75;1.65;;;;;;;12.59;64.56;101113.72;5017043;28;20034;-81
2022/01/03 09:08:26;;;;;;;0.17;0.17;;;;;;;12.52;65.06;101108.59;5016298;28;20030;-81
2022/01/03 09:10:53;;;;;;;0.10;0.10;;;;;;;12.70;64.79;101107.31;5016409;28;20040;-81
2022/01/03 09:13:21;;;;;;;0.10;0.10;;;;;;;12.56;65.33;101115.59;5016336;28;20065;-82
2022/01/03 09:15:48;;;;;;;0.10;0.10;;;;;;;12.44;64.95;101107.00;5016873;28;20040;-81
2022/01/03 09:18:16;;;;;;;5.25;1.15;;;;;;;12.55;65.02;101114.72;5016637;28;20026;-81
2022/01/03 09:20:43;;;;;;;0.10;0.10;;;;;;;12.57;64.89;101104.94;5016383;28;20038;-81
2022/01/03 09:23:17;;;;;;;0.47;0.47;;;;;;;12.67;64.36;101096.72;5016496;28;20482;-81
2022/01/03 09:29:01;;;;;;;0.10;0.10;;;;;;;12.55;64.16;101120.03;5017203;28;20093;-81
2022/01/03 09:31:19;;;;;;;0.63;0.63;;;;;;;12.51;64.82;101106.84;5016961;28;20045;-81
2022/01/03 09:33:45;;;;;;;1.80;1.65;;;;;;;12.28;65.54;101106.47;5016624;28;20026;-81
2022/01/03 09:36:11;;;;;;;0.10;0.10;;;;;;;12.41;65.06;101106.19;5016425;28;20025;-81
2022/01/03 09:38:38;;;;;;;0.10;0.10;;;;;;;12.42;65.45;101102.63;5014358;28;20030;-81
2022/01/03 09:41:07;;;;;;;0.10;0.10;;;;;;;12.52;64.59;101098.84;5016517;28;20088;-81
2022/01/03 09:43:55;;;;;;;0.85;0.85;;;;;;;12.59;64.76;101100.44;5016458;28;20026;-82
2022/01/03 09:46:25;;;;;;;0.10;0.10;;;;;;;12.58;64.95;101111.13;5015792;28;20506;-81
2022/01/03 09:48:52;;;;;;;1.77;1.75;;;;;;;12.48;65.23;101101.63;5015882;28;20115;-81
2022/01/03 09:51:22;;;;;;;0.10;0.10;;;;;;;12.57;65.24;101096.06;5016336;28;20044;-81
2022/01/03 09:53:50;;;;;;;0.10;0.10;;;;;;;12.54;64.49;101099.69;5015717;28;20113;-81
2022/01/03 09:56:17;;;;;;;5.57;1.45;;;;;;;12.60;64.75;101096.00;5015814;28;20469;-81
2022/01/03 09:58:45;;;;;;;0.10;0.10;;;;;;;12.50;64.86;101095.34;5015216;28;20400;-81
2022/01/03 10:01:12;;;;;;;0.65;0.65;;;;;;;12.72;64.37;101092.16;5015718;28;20060;-81
2022/01/03 10:03:41;;;;;;;0.10;0.10;;;;;;;12.77;64.16;101098.22;5015883;28;20034;-81
2022/01/03 10:06:09;;;;;;;0.75;0.75;;;;;;;12.64;64.89;101094.16;5015683;28;20042;-81
2022/01/03 10:08:35;;;;;;;0.10;0.10;;;;;;;12.75;64.83;101089.44;5015744;28;20038;-81
2022/01/03 10:11:01;;;;;;;0.10;0.10;;;;;;;12.83;64.30;101076.81;5015646;28;20044;-81
2022/01/03 10:13:27;;;;;;;0.10;0.10;;;;;;;12.79;64.36;101096.41;5015207;28;20088;-82
2022/01/03 10:15:54;;;;;;;0.20;0.20;;;;;;;12.81;64.75;101086.63;5015109;28;20053;-81
2022/01/03 10:18:20;;;;;;;0.20;0.20;;;;;;;12.91;64.10;101084.56;5014955;28;20038;-82
2022/01/03 10:20:47;;;;;;;0.10;0.10;;;;;;;12.97;64.02;101080.91;5014630;28;20478;-82
2022/01/03 10:23:16;;;;;;;0.10;0.10;;;;;;;12.87;64.62;101072.28;5014786;28;20030;-82
2022/01/03 10:25:46;;;;;;;0.10;0.10;;;;;;;13.06;64.00;101076.22;5015359;28;20401;-82
2022/01/03 10:28:22;;;;;;;0.38;0.38;;;;;;;13.05;64.05;101070.94;5015329;28;20363;-82
2022/01/03 10:30:49;;;;;;;0.10;0.10;;;;;;;12.93;64.40;101073.03;5015403;28;20038;-80
2022/01/03 10:33:18;;;;;;;0.68;0.68;;;;;;;13.06;64.12;101072.66;5014644;28;20030;-82
2022/01/03 10:35:50;;;;;;;0.10;0.10;;;;;;;12.89;64.18;101071.34;5013886;28;20426;-82
2022/01/03 10:41:15;;;;;;;0.40;0.40;;;;;;;13.01;64.23;101066.59;5080842;28;20422;-81
2022/01/03 10:43:43;;;;;;;0.60;0.60;;;;;;;12.86;64.71;101066.09;5072344;28;20040;-81
2022/01/03 10:46:31;;;;;;;0.10;0.10;;;;;;;13.09;64.38;101051.31;5071822;28;20076;-81
2022/01/03 10:52:12;;;;;;;0.10;0.10;;;;;;;13.16;63.99;101049.34;5074790;27;20809;-81
2022/01/03 10:54:39;;;;;;;0.10;0.10;;;;;;;13.15;63.59;101051.16;5071081;28;20047;-81
2022/01/03 10:57:05;;;;;;;0.00;0.00;;;;;;;13.29;63.21;101041.91;5071335;28;20450;-81
2022/01/03 10:59:34;;;;;;;0.10;0.10;;;;;;;13.30;62.59;101035.69;5071290;28;20392;-81
2022/01/03 11:04:59;;;;;;;0.10;0.10;;;;;;;13.36;62.77;101052.34;5091706;27;20389;-81
2022/01/03 11:13:16;;;;;;;0.10;0.10;;;;;;;13.54;61.99;101042.97;5091024;27;20587;-81
2022/01/03 11:18:38;;;;;;;3.13;2.88;;;;;;;13.47;62.48;101052.09;5111482;27;20380;-81
2022/01/03 11:26:28;;;;;;;0.10;0.10;;;;;;;13.37;62.27;101029.25;5092234;28;20900;-81
2022/01/03 11:28:54;;;;;;;0.10;0.10;;;;;;;13.51;61.91;101021.78;5072597;28;20046;-81
2022/01/03 11:31:21;;;;;;;0.10;0.10;;;;;;;13.45;62.50;101008.66;5059630;28;20428;-81
2022/01/03 11:33:50;;;;;;;0.40;0.40;;;;;;;13.49;62.55;101020.09;5052045;28;20116;-80
2022/01/03 11:36:19;;;;;;;0.10;0.10;;;;;;;13.56;62.33;100984.38;5051749;28;20104;-80
2022/01/03 11:38:46;;;;;;;0.10;0.10;;;;;;;13.49;62.23;100994.31;5051297;28;20025;-81
2022/01/03 11:41:13;;;;;;;0.20;0.20;;;;;;;13.39;62.75;100998.19;5052313;28;20034;-80
2022/01/03 11:43:42;;;;;;;0.65;0.65;;;;;;;13.42;62.36;101003.41;5051690;28;20026;-81
2022/01/03 11:46:08;;;;;;;0.10;0.10;;;;;;;13.48;62.66;100989.91;5052339;28;20033;-81
2022/01/03 11:48:35;;;;;;;0.25;0.25;;;;;;;13.52;62.59;100986.25;5051440;28;20048;-81
2022/01/03 11:51:05;;;;;;;1.90;1.75;;;;;;;13.61;62.09;100997.53;5051375;28;20033;-81
2022/01/03 11:53:35;;;;;;;0.75;0.75;;;;;;;13.56;62.14;100985.25;5051674;28;20045;-81
2022/01/03 11:56:04;;;;;;;0.52;0.52;;;;;;;13.61;61.89;100984.22;5051147;28;20041;-81
2022/01/03 11:58:47;;;;;;;0.50;0.50;;;;;;;13.57;61.61;100988.75;5051098;28;20029;-80
2022/01/03 12:04:08;;;;;;;0.10;0.10;;;;;;;13.54;61.25;100972.91;5050260;28;20049;-81
2022/01/03 12:06:35;;;;;;;0.05;0.05;;;;;;;13.68;61.05;100968.03;5050964;28;20385;-80
2022/01/03 12:09:07;;;;;;;0.10;0.10;;;;;;;13.67;60.45;100968.06;5051164;28;20029;-81
2022/01/03 12:11:34;;;;;;;2.63;1.90;;;;;;;13.77;60.83;100973.97;5051562;28;20048;-81
2022/01/03 12:22:17;;;;;;;0.10;0.10;;;;;;;13.61;60.32;100952.28;5112599;27;20388;-81
2022/01/03 12:35:47;;;;;;;1.85;1.10;;;;;;;13.32;61.35;100925.63;5092422;28;20433;-81
2022/01/03 12:38:17;;;;;;;0.10;0.10;;;;;;;13.19;61.58;100925.09;5072061;28;20037;-81
2022/01/03 12:43:44;;;;;;;2.15;2.00;;;;;;;13.23;61.54;100924.13;5133329;27;20916;-80